createdAt,value
2024-03-05T00:00:36.980Z,6.70
2024-03-05T00:03:04.478Z,6.70
2024-03-05T00:05:31.421Z,6.70
2024-03-05T00:07:58.556Z,6.70
2024-03-05T00:10:25.870Z,6.70
2024-03-05T00:12:53.445Z,6.70
2024-03-05T00:15:20.427Z,6.80
2024-03-05T00:17:47.260Z,6.70
2024-03-05T00:20:20.471Z,6.80
2024-03-05T00:22:52.118Z,6.80
2024-03-05T00:25:19.636Z,6.80
2024-03-05T00:27:46.748Z,6.90
2024-03-05T00:30:15.108Z,6.80
2024-03-05T00:32:42.872Z,6.80
2024-03-05T00:35:10.876Z,6.80
2024-03-05T00:37:38.294Z,6.80
2024-03-05T00:40:10.124Z,6.80
2024-03-05T00:42:37.994Z,6.90
2024-03-05T00:45:08.938Z,6.90
2024-03-05T00:47:37.192Z,6.90
2024-03-05T00:50:05.557Z,6.90
2024-03-05T00:52:32.611Z,6.90
2024-03-05T00:55:00.696Z,7.00
2024-03-05T00:57:27.834Z,7.00
2024-03-05T00:59:54.884Z,6.90
2024-03-05T01:02:23.238Z,7.00
2024-03-05T01:04:50.730Z,7.00
2024-03-05T01:07:18.559Z,7.00
2024-03-05T01:09:45.680Z,7.10
2024-03-05T01:12:12.777Z,7.00
2024-03-05T01:14:40.079Z,7.10
2024-03-05T01:17:09.499Z,7.10
2024-03-05T01:19:36.659Z,7.10
2024-03-05T01:22:03.587Z,7.10
2024-03-05T01:24:30.414Z,7.10
2024-03-05T01:26:57.348Z,7.10
2024-03-05T01:29:24.458Z,7.10
2024-03-05T01:31:57.947Z,7.20
2024-03-05T01:34:25.222Z,7.20
2024-03-05T01:36:57.941Z,7.30
2024-03-05T01:39:26.752Z,7.20
2024-03-05T01:41:53.868Z,7.20
2024-03-05T01:44:21.535Z,7.20
2024-03-05T01:46:50.364Z,7.20
2024-03-05T01:49:19.095Z,7.20
2024-03-05T01:51:46.358Z,7.20
2024-03-05T01:54:15.682Z,7.30
2024-03-05T01:56:48.651Z,7.30
2024-03-05T01:59:17.105Z,7.30
2024-03-05T02:01:47.054Z,7.30
2024-03-05T02:04:14.398Z,7.30
2024-03-05T02:06:43.764Z,7.30
2024-03-05T02:09:12.533Z,7.30
2024-03-05T02:11:52.622Z,7.30
2024-03-05T02:14:27.782Z,7.30
2024-03-05T02:16:57.296Z,7.30
2024-03-05T02:19:24.321Z,7.30
2024-03-05T02:22:04.647Z,7.40
2024-03-05T02:24:31.777Z,7.40
2024-03-05T02:27:02.105Z,7.40
2024-03-05T02:29:30.694Z,7.40
2024-03-05T02:31:57.792Z,7.40
2024-03-05T02:34:24.847Z,7.40
2024-03-05T02:36:52.224Z,7.40
2024-03-05T02:39:19.177Z,7.50
2024-03-05T02:41:46.021Z,7.50
2024-03-05T02:44:13.110Z,7.50
2024-03-05T02:46:39.935Z,7.50
2024-03-05T02:49:07.348Z,7.50
2024-03-05T02:51:34.906Z,7.50
2024-03-05T02:54:02.036Z,7.60
2024-03-05T02:56:29.072Z,7.50
2024-03-05T02:58:56.038Z,7.50
2024-03-05T03:01:22.864Z,7.50
2024-03-05T03:03:49.821Z,7.60
2024-03-05T03:06:19.520Z,7.60
2024-03-05T03:08:46.478Z,7.60
2024-03-05T03:11:17.617Z,7.60
2024-03-05T03:13:45.871Z,7.60
2024-03-05T03:16:12.720Z,7.60
2024-03-05T03:18:39.473Z,7.70
2024-03-05T03:21:06.324Z,7.60
2024-03-05T03:23:33.592Z,7.60
2024-03-05T03:26:00.592Z,7.60
2024-03-05T03:28:27.466Z,7.60
2024-03-05T03:30:56.141Z,7.70
2024-03-05T03:33:23.323Z,7.70
2024-03-05T03:35:50.288Z,7.70
2024-03-05T03:38:17.195Z,7.60
2024-03-05T03:40:44.220Z,7.60
2024-03-05T03:43:15.924Z,7.70
2024-03-05T03:45:45.729Z,7.60
2024-03-05T03:48:12.721Z,7.60
2024-03-05T03:50:39.604Z,7.60
2024-03-05T03:53:06.959Z,7.60
2024-03-05T03:55:34.700Z,7.70
2024-03-05T03:58:01.591Z,7.70
2024-03-05T04:00:30.428Z,7.70
2024-03-05T04:02:57.255Z,7.60
2024-03-05T04:05:25.898Z,7.70
2024-03-05T04:07:52.789Z,7.70
2024-03-05T04:10:19.696Z,7.60
2024-03-05T04:12:46.539Z,7.70
2024-03-05T04:15:13.966Z,7.70
2024-03-05T04:17:41.168Z,7.60
2024-03-05T04:20:10.608Z,7.70
2024-03-05T04:22:41.058Z,7.70
2024-03-05T04:25:08.599Z,7.70
2024-03-05T04:27:37.888Z,7.60
2024-03-05T04:30:11.550Z,7.60
2024-03-05T04:32:42.072Z,7.60
2024-03-05T04:35:12.330Z,7.60
2024-03-05T04:37:39.229Z,7.60
2024-03-05T04:40:11.252Z,7.50
2024-03-05T04:42:38.553Z,7.60
2024-03-05T04:45:05.610Z,7.50
2024-03-05T04:47:32.786Z,7.50
2024-03-05T04:49:59.747Z,7.40
2024-03-05T04:52:30.815Z,7.40
2024-03-05T04:54:59.300Z,7.30
2024-03-05T04:57:26.100Z,7.20
2024-03-05T04:59:53.714Z,7.00
2024-03-05T05:02:20.701Z,7.00
2024-03-05T05:04:49.313Z,6.90
2024-03-05T05:07:17.516Z,6.90
2024-03-05T05:09:45.401Z,6.90
2024-03-05T05:12:13.106Z,6.80
2024-03-05T05:14:39.984Z,6.70
2024-03-05T05:17:07.230Z,6.70
2024-03-05T05:19:34.173Z,6.70
2024-03-05T05:22:01.075Z,6.90
2024-03-05T05:24:27.980Z,7.00
2024-03-05T05:26:54.868Z,7.00
2024-03-05T05:29:31.556Z,7.00
2024-03-05T05:32:08.637Z,7.00
2024-03-05T05:34:36.231Z,6.90
2024-03-05T05:37:03.152Z,6.90
2024-03-05T05:39:29.960Z,6.90
2024-03-05T05:41:57.305Z,6.80
2024-03-05T05:44:24.286Z,6.80
2024-03-05T05:46:52.196Z,6.90
2024-03-05T05:49:22.094Z,7.00
2024-03-05T05:51:49.504Z,7.10
2024-03-05T05:54:19.786Z,7.10
2024-03-05T05:56:49.948Z,7.10
2024-03-05T05:59:18.083Z,7.20
2024-03-05T06:01:45.214Z,7.20
2024-03-05T06:04:12.996Z,7.20
2024-03-05T06:06:40.155Z,7.20
2024-03-05T06:09:10.703Z,7.20
2024-03-05T06:11:40.776Z,7.20
2024-03-05T06:14:08.239Z,7.10
2024-03-05T06:16:35.593Z,7.20
2024-03-05T06:19:02.814Z,7.20
2024-03-05T06:21:29.809Z,7.20
2024-03-05T06:23:56.763Z,7.20
2024-03-05T06:26:23.812Z,7.20
2024-03-05T06:28:50.658Z,7.20
2024-03-05T06:31:18.107Z,7.20
2024-03-05T06:33:45.449Z,7.20
2024-03-05T06:36:13.609Z,7.20
2024-03-05T06:38:40.680Z,7.20
2024-03-05T06:41:07.842Z,7.20
2024-03-05T06:43:37.721Z,7.20
2024-03-05T06:46:05.800Z,7.20
2024-03-05T06:48:35.039Z,7.20
2024-03-05T06:51:05.343Z,7.20
2024-03-05T06:53:50.895Z,7.30
2024-03-05T06:56:36.240Z,7.30
2024-03-05T06:59:05.041Z,7.20
2024-03-05T07:01:33.340Z,7.30
2024-03-05T07:04:00.534Z,7.30
2024-03-05T07:06:27.327Z,7.30
2024-03-05T07:08:56.253Z,7.20
2024-03-05T07:11:23.978Z,7.30
2024-03-05T07:13:51.340Z,7.30
2024-03-05T07:16:19.478Z,7.30
2024-03-05T07:18:51.985Z,7.30
2024-03-05T07:21:21.063Z,7.30
2024-03-05T07:23:50.024Z,7.30
2024-03-05T07:26:17.229Z,7.30
2024-03-05T07:28:44.874Z,7.30
2024-03-05T07:31:12.355Z,7.30
2024-03-05T07:33:39.748Z,7.40
2024-03-05T07:36:07.817Z,7.40
2024-03-05T07:38:34.705Z,7.50
2024-03-05T07:41:08.406Z,7.50
2024-03-05T07:43:40.698Z,7.60
2024-03-05T07:46:08.544Z,7.70
2024-03-05T07:48:35.343Z,7.60
2024-03-05T07:51:02.130Z,7.60
2024-03-05T07:53:28.906Z,7.60
2024-03-05T07:55:55.760Z,7.70
2024-03-05T07:58:22.608Z,7.70
2024-03-05T08:00:49.457Z,7.60
2024-03-05T08:03:16.308Z,7.60
2024-03-05T08:05:43.374Z,7.60
2024-03-05T08:08:10.883Z,7.60
2024-03-05T08:10:37.957Z,7.60
2024-03-05T08:13:04.888Z,7.60
2024-03-05T08:15:31.782Z,7.60
2024-03-05T08:17:59.884Z,7.60
2024-03-05T08:20:27.818Z,7.60
2024-03-05T08:22:56.728Z,7.60
2024-03-05T08:25:25.312Z,7.70
2024-03-05T08:27:59.501Z,7.70
2024-03-05T08:30:32.352Z,7.80
2024-03-05T08:32:59.288Z,7.70
2024-03-05T08:35:31.466Z,7.70
2024-03-05T08:38:00.635Z,7.70
2024-03-05T08:40:33.805Z,7.80
2024-03-05T08:43:04.628Z,7.80
2024-03-05T08:45:32.305Z,8.00
2024-03-05T08:47:59.536Z,8.10
2024-03-05T08:50:30.145Z,8.10
2024-03-05T08:52:59.354Z,8.30
2024-03-05T08:55:27.428Z,8.40
2024-03-05T08:57:55.955Z,8.50
2024-03-05T09:00:33.339Z,8.70
2024-03-05T09:03:10.396Z,8.90
2024-03-05T09:05:37.702Z,9.20
2024-03-05T09:08:06.366Z,9.10
2024-03-05T09:10:33.719Z,9.10
2024-03-05T09:13:01.174Z,8.90
2024-03-05T09:15:28.055Z,8.90
2024-03-05T09:17:55.001Z,8.80
2024-03-05T09:20:22.076Z,8.80
2024-03-05T09:22:49.119Z,8.80
2024-03-05T09:25:17.226Z,8.80
2024-03-05T09:27:46.476Z,8.70
2024-03-05T09:30:16.189Z,8.60
2024-03-05T09:32:44.702Z,8.60
2024-03-05T09:35:14.130Z,8.60
2024-03-05T09:37:44.515Z,8.60
2024-03-05T09:40:19.036Z,8.70
2024-03-05T09:42:47.028Z,8.70
2024-03-05T09:45:19.179Z,8.70
2024-03-05T09:47:48.766Z,8.60
2024-03-05T09:50:18.266Z,8.50
2024-03-05T09:52:47.848Z,8.50
2024-03-05T09:55:16.683Z,8.60
2024-03-05T09:57:50.018Z,8.60
2024-03-05T10:00:20.522Z,8.50
2024-03-05T10:02:52.189Z,8.50
2024-03-05T10:05:20.288Z,8.60
2024-03-05T10:07:50.634Z,8.70
2024-03-05T10:10:22.439Z,8.70
2024-03-05T10:12:51.645Z,8.80
2024-03-05T10:15:22.668Z,8.90
2024-03-05T10:17:55.084Z,9.20
2024-03-05T10:20:29.798Z,9.40
2024-03-05T10:22:59.895Z,9.80
2024-03-05T10:25:29.301Z,9.80
2024-03-05T10:27:57.257Z,10.20
2024-03-05T10:30:35.876Z,10.60
2024-03-05T10:33:11.076Z,11.30
2024-03-05T10:35:39.816Z,12.10
2024-03-05T10:38:10.310Z,13.20
2024-03-05T10:40:38.167Z,13.70
2024-03-05T10:43:06.153Z,13.70
2024-03-05T10:45:39.307Z,13.20
2024-03-05T10:48:08.924Z,12.80
2024-03-05T10:50:39.965Z,12.20
2024-03-05T10:53:10.943Z,11.50
2024-03-05T10:55:40.015Z,10.90
2024-03-05T10:58:14.917Z,10.80
2024-03-05T11:00:47.595Z,10.90
2024-03-05T11:03:18.434Z,11.00
2024-03-05T11:05:50.665Z,11.00
2024-03-05T11:08:25.491Z,11.20
2024-03-05T11:11:04.123Z,11.20
2024-03-05T11:13:33.852Z,11.30
2024-03-05T11:16:03.894Z,11.20
2024-03-05T11:18:32.812Z,11.20
2024-03-05T11:21:07.333Z,11.10
2024-03-05T11:23:58.867Z,11.10
2024-03-05T11:26:28.328Z,11.00
2024-03-05T11:29:09.938Z,10.70
2024-03-05T11:31:37.536Z,10.80
2024-03-05T11:34:04.856Z,10.70
2024-03-05T11:36:35.063Z,10.60
2024-03-05T11:39:05.956Z,10.60
2024-03-05T11:41:37.250Z,10.60
2024-03-05T11:44:05.301Z,10.50
2024-03-05T11:46:48.026Z,10.50
2024-03-05T11:49:16.432Z,10.50
2024-03-05T11:51:47.230Z,10.50
2024-03-05T11:54:16.434Z,10.70
2024-03-05T11:56:45.484Z,10.80
2024-03-05T11:59:15.664Z,11.00
2024-03-05T12:01:44.198Z,11.00
2024-03-05T12:04:13.075Z,10.80
2024-03-05T12:06:44.459Z,10.90
2024-03-05T12:09:22.174Z,11.00
2024-03-05T12:12:04.936Z,11.20
2024-03-05T12:14:35.729Z,11.00
2024-03-05T12:17:05.388Z,11.00
2024-03-05T12:19:32.663Z,11.00
2024-03-05T12:22:02.851Z,11.00
2024-03-05T12:24:30.379Z,11.00
2024-03-05T12:26:59.018Z,10.90
2024-03-05T12:29:38.693Z,10.90
2024-03-05T12:32:07.786Z,10.80
2024-03-05T12:34:35.710Z,10.70
2024-03-05T12:37:02.697Z,10.80
2024-03-05T12:39:29.653Z,10.80
2024-03-05T12:42:03.447Z,11.00
2024-03-05T12:44:33.839Z,10.60
2024-03-05T12:47:15.250Z,10.50
2024-03-05T12:49:51.817Z,10.50
2024-03-05T12:52:24.076Z,10.30
2024-03-05T12:55:02.832Z,10.40
2024-03-05T12:57:31.585Z,10.50
2024-03-05T13:00:00.006Z,10.60
2024-03-05T13:02:29.959Z,10.60
2024-03-05T13:04:59.282Z,10.40
2024-03-05T13:07:27.327Z,10.50
2024-03-05T13:09:55.812Z,10.70
2024-03-05T13:12:23.391Z,10.90
2024-03-05T13:14:50.567Z,10.90
2024-03-05T13:17:17.538Z,11.10
2024-03-05T13:19:44.506Z,11.40
2024-03-05T13:22:11.670Z,11.70
2024-03-05T13:24:39.486Z,11.70
2024-03-05T13:27:06.298Z,11.70
2024-03-05T13:29:33.260Z,11.70
2024-03-05T13:32:00.594Z,11.60
2024-03-05T13:34:28.423Z,11.60
2024-03-05T13:36:55.558Z,11.50
2024-03-05T13:39:25.316Z,11.40
2024-03-05T13:41:54.826Z,11.60
2024-03-05T13:44:25.474Z,11.50
2024-03-05T13:46:53.228Z,11.40
2024-03-05T13:49:21.907Z,11.20
2024-03-05T13:51:49.399Z,11.00
2024-03-05T13:54:18.523Z,10.70
2024-03-05T13:56:45.433Z,10.20
2024-03-05T13:59:12.738Z,9.70
2024-03-05T14:01:40.215Z,9.40
2024-03-05T14:04:13.482Z,9.30
2024-03-05T14:06:41.509Z,9.10
2024-03-05T14:09:11.977Z,9.00
2024-03-05T14:11:42.045Z,8.90
2024-03-05T14:14:10.067Z,8.80
2024-03-05T14:16:39.449Z,8.80
2024-03-05T14:19:06.721Z,8.80
2024-03-05T14:21:34.902Z,8.90
2024-03-05T14:24:01.817Z,8.90
2024-03-05T14:26:29.161Z,9.00
2024-03-05T14:28:56.178Z,8.90
2024-03-05T14:31:23.136Z,8.90
2024-03-05T14:33:50.022Z,8.70
2024-03-05T14:36:17.175Z,8.60
2024-03-05T14:38:44.534Z,8.50
2024-03-05T14:41:12.503Z,8.50
2024-03-05T14:43:39.730Z,8.60
2024-03-05T14:46:06.941Z,8.60
2024-03-05T14:48:34.438Z,8.60
2024-03-05T14:51:02.192Z,8.60
2024-03-05T14:53:29.105Z,8.60
2024-03-05T14:55:56.098Z,8.70
2024-03-05T14:58:23.137Z,8.70
2024-03-05T15:00:50.082Z,8.80
2024-03-05T15:03:19.109Z,8.90
2024-03-05T15:05:46.501Z,9.10
2024-03-05T15:08:14.267Z,9.10
2024-03-05T15:10:41.698Z,9.20
2024-03-05T15:13:11.723Z,9.20
2024-03-05T15:15:38.641Z,9.20
2024-03-05T15:18:06.647Z,9.30
2024-03-05T15:20:34.498Z,9.50
2024-03-05T15:23:01.788Z,9.50
2024-03-05T15:25:28.730Z,9.50
2024-03-05T15:28:01.937Z,9.60
2024-03-05T15:30:33.476Z,9.60
2024-03-05T15:33:01.459Z,9.60
2024-03-05T15:35:31.966Z,9.60
2024-03-05T15:38:00.000Z,9.60
2024-03-05T15:40:27.593Z,9.40
2024-03-05T15:42:57.145Z,9.20
2024-03-05T15:45:32.206Z,9.00
2024-03-05T15:48:00.375Z,8.90
2024-03-05T15:50:31.071Z,8.70
2024-03-05T15:53:00.797Z,8.60
2024-03-05T15:55:31.512Z,8.60
2024-03-05T15:58:09.770Z,8.50
2024-03-05T16:00:39.273Z,8.40
2024-03-05T16:03:08.584Z,8.40
2024-03-05T16:05:51.134Z,8.40
2024-03-05T16:08:25.093Z,8.40
2024-03-05T16:10:53.300Z,8.30
2024-03-05T16:13:21.037Z,8.20
2024-03-05T16:15:48.348Z,8.20
2024-03-05T16:18:15.934Z,8.10
2024-03-05T16:20:43.193Z,8.00
2024-03-05T16:23:11.557Z,7.80
2024-03-05T16:25:43.281Z,7.70
2024-03-05T16:28:11.511Z,7.70
2024-03-05T16:30:39.319Z,7.60
2024-03-05T16:33:07.318Z,7.70
2024-03-05T16:35:36.754Z,7.70
2024-03-05T16:38:05.398Z,7.70
2024-03-05T16:40:36.484Z,7.70
2024-03-05T16:43:04.242Z,7.70
2024-03-05T16:45:31.281Z,7.60
2024-03-05T16:48:02.348Z,7.60
2024-03-05T16:50:30.886Z,7.50
2024-03-05T16:52:59.105Z,7.60
2024-03-05T16:55:27.412Z,7.60
2024-03-05T16:57:56.113Z,7.50
2024-03-05T17:00:27.809Z,7.60
2024-03-05T17:03:14.517Z,7.60
2024-03-05T17:05:47.103Z,7.50
2024-03-05T17:08:22.097Z,7.60
2024-03-05T17:10:51.395Z,7.50
2024-03-05T17:13:20.407Z,7.60
2024-03-05T17:16:00.455Z,7.50
2024-03-05T17:18:30.349Z,7.40
2024-03-05T17:20:59.049Z,7.30
2024-03-05T17:23:27.844Z,7.40
2024-03-05T17:25:57.624Z,7.30
2024-03-05T17:28:27.716Z,7.20
2024-03-05T17:30:55.474Z,7.30
2024-03-05T17:33:22.607Z,7.20
2024-03-05T17:35:51.795Z,7.20
2024-03-05T17:38:19.747Z,7.10
2024-03-05T17:40:46.818Z,7.10
2024-03-05T17:43:14.750Z,7.10
2024-03-05T17:45:43.784Z,7.20
2024-03-05T17:48:13.304Z,7.20
2024-03-05T17:50:40.256Z,7.30
2024-03-05T17:53:09.700Z,7.30
2024-03-05T17:55:36.933Z,7.30
2024-03-05T17:58:05.613Z,7.30
2024-03-05T18:00:45.430Z,7.30
2024-03-05T18:03:12.835Z,7.30
2024-03-05T18:05:40.453Z,7.30
2024-03-05T18:08:08.466Z,7.20
2024-03-05T18:10:37.240Z,7.20
2024-03-05T18:13:08.147Z,7.20
2024-03-05T18:15:35.739Z,7.20
2024-03-05T18:18:03.595Z,7.20
2024-03-05T18:20:30.922Z,7.20
2024-03-05T18:23:01.719Z,7.20
2024-03-05T18:25:35.453Z,7.20
2024-03-05T18:28:03.545Z,7.20
2024-03-05T18:30:34.059Z,7.30
2024-03-05T18:33:07.013Z,7.30
2024-03-05T18:35:34.675Z,7.30
2024-03-05T18:38:03.205Z,7.30
2024-03-05T18:40:33.548Z,7.30
2024-03-05T18:43:00.450Z,7.30
2024-03-05T18:45:31.137Z,7.30
2024-03-05T18:48:05.774Z,7.30
2024-03-05T18:50:37.031Z,7.30
2024-03-05T18:53:06.958Z,7.30
2024-03-05T18:55:37.205Z,7.30
2024-03-05T18:58:09.335Z,7.30
2024-03-05T19:00:39.816Z,7.20
2024-03-05T19:03:06.954Z,7.20
2024-03-05T19:05:37.663Z,7.20
2024-03-05T19:08:06.700Z,7.20
2024-03-05T19:10:34.124Z,7.20
2024-03-05T19:13:03.509Z,7.10
2024-03-05T19:15:31.003Z,7.10
2024-03-05T19:17:58.580Z,7.10
2024-03-05T19:20:26.842Z,7.10
2024-03-05T19:22:54.141Z,7.10
2024-03-05T19:25:22.021Z,7.10
2024-03-05T19:27:49.118Z,7.20
2024-03-05T19:30:19.020Z,7.20
2024-03-05T19:32:48.630Z,7.20
2024-03-05T19:35:18.379Z,7.20
2024-03-05T19:37:48.352Z,7.20
2024-03-05T19:40:17.429Z,7.20
2024-03-05T19:42:46.284Z,7.20
2024-03-05T19:45:14.770Z,7.20
2024-03-05T19:47:42.298Z,7.30
2024-03-05T19:50:10.114Z,7.20
2024-03-05T19:52:37.919Z,7.20
2024-03-05T19:55:05.365Z,7.20
2024-03-05T19:57:32.544Z,7.20
2024-03-05T20:00:02.586Z,7.30
2024-03-05T20:02:30.332Z,7.30
2024-03-05T20:04:57.372Z,7.30
2024-03-05T20:07:24.343Z,7.30
2024-03-05T20:09:51.240Z,7.30
2024-03-05T20:12:18.884Z,7.30
2024-03-05T20:14:46.466Z,7.20
2024-03-05T20:17:15.883Z,7.30
2024-03-05T20:19:43.634Z,7.30
2024-03-05T20:22:12.007Z,7.20
2024-03-05T20:24:39.017Z,7.30
2024-03-05T20:27:10.208Z,7.20
2024-03-05T20:29:39.608Z,7.20
2024-03-05T20:32:07.553Z,7.30
2024-03-05T20:34:34.868Z,7.30
2024-03-05T20:37:02.080Z,7.30
2024-03-05T20:39:29.014Z,7.30
2024-03-05T20:41:55.855Z,7.20
2024-03-05T20:44:22.785Z,7.30
2024-03-05T20:46:49.696Z,7.20
2024-03-05T20:49:17.411Z,7.20
2024-03-05T20:51:44.319Z,7.20
2024-03-05T20:54:11.372Z,7.10
2024-03-05T20:56:38.283Z,7.10
2024-03-05T20:59:05.519Z,7.10
2024-03-05T21:01:32.767Z,7.10
2024-03-05T21:04:01.440Z,7.00
2024-03-05T21:06:28.446Z,7.10
2024-03-05T21:08:55.392Z,7.00
2024-03-05T21:11:23.955Z,7.10
2024-03-05T21:13:51.175Z,7.10
2024-03-05T21:16:20.109Z,7.10
2024-03-05T21:18:47.456Z,7.00
2024-03-05T21:21:15.728Z,7.00
2024-03-05T21:23:42.989Z,7.00
2024-03-05T21:26:23.114Z,7.00
2024-03-05T21:28:56.977Z,7.00
2024-03-05T21:31:25.370Z,7.00
2024-03-05T21:33:52.276Z,7.00
2024-03-05T21:36:19.123Z,7.00
2024-03-05T21:38:46.207Z,7.00
2024-03-05T21:41:13.321Z,7.00
2024-03-05T21:43:41.076Z,7.00
2024-03-05T21:46:09.317Z,7.10
2024-03-05T21:48:36.355Z,7.00
2024-03-05T21:51:09.409Z,7.00
2024-03-05T21:53:39.421Z,7.00
2024-03-05T21:56:06.783Z,7.00
2024-03-05T21:58:34.137Z,7.00
2024-03-05T22:01:01.314Z,7.00
2024-03-05T22:03:29.829Z,7.00
2024-03-05T22:06:02.017Z,7.00
2024-03-05T22:08:33.198Z,7.00
2024-03-05T22:11:00.244Z,6.90
2024-03-05T22:13:27.835Z,6.90
2024-03-05T22:15:56.252Z,6.70
2024-03-05T22:18:23.357Z,6.80
2024-03-05T22:20:52.340Z,6.70
2024-03-05T22:23:19.373Z,6.70
2024-03-05T22:25:47.326Z,6.60
2024-03-05T22:28:15.921Z,6.60
2024-03-05T22:30:43.487Z,6.70
2024-03-05T22:33:12.059Z,6.70
2024-03-05T22:35:39.479Z,6.60
2024-03-05T22:38:06.508Z,6.60
2024-03-05T22:40:33.375Z,6.70
2024-03-05T22:43:00.364Z,6.70
2024-03-05T22:45:28.984Z,6.60
2024-03-05T22:47:56.024Z,6.70
2024-03-05T22:50:23.150Z,6.70
2024-03-05T22:52:51.023Z,6.60
2024-03-05T22:55:17.969Z,6.60
2024-03-05T22:57:44.807Z,6.70
2024-03-05T23:00:24.849Z,6.60
2024-03-05T23:02:52.744Z,6.60
2024-03-05T23:05:21.069Z,6.70
2024-03-05T23:07:48.500Z,6.70
2024-03-05T23:10:16.956Z,6.60
2024-03-05T23:12:44.596Z,6.60
2024-03-05T23:15:16.636Z,6.60
2024-03-05T23:17:44.574Z,6.60
2024-03-05T23:20:12.897Z,6.60
2024-03-05T23:22:40.727Z,6.60
2024-03-05T23:25:08.342Z,6.60
2024-03-05T23:27:35.847Z,6.60
2024-03-05T23:30:07.480Z,6.50
2024-03-05T23:32:34.506Z,6.50
2024-03-05T23:35:01.756Z,6.50
2024-03-05T23:37:28.735Z,6.50
2024-03-05T23:39:55.772Z,6.50
2024-03-05T23:42:22.554Z,6.60
2024-03-05T23:44:49.438Z,6.50
2024-03-05T23:47:16.376Z,6.50
2024-03-05T23:49:44.729Z,6.50
2024-03-05T23:52:11.669Z,6.40
2024-03-05T23:54:38.601Z,6.40
2024-03-05T23:57:05.509Z,6.30
2024-03-05T23:59:32.374Z,6.30
